sensor_id;sensor_type;location;lat;lon;timestamp;P1;durP1;ratioP1;P2;durP2;ratioP2
1507;SDS011;745;48.586;10.032;2022-11-20T00:01:34;8.30;;;5.87;;
1507;SDS011;745;48.586;10.032;2022-11-20T00:06:09;8.67;;;5.40;;
1507;SDS011;745;48.586;10.032;2022-11-20T00:10:41;8.03;;;5.70;;
1507;SDS011;745;48.586;10.032;2022-11-20T00:15:12;6.57;;;4.90;;
1507;SDS011;745;48.586;10.032;2022-11-20T00:19:42;6.23;;;4.93;;
1507;SDS011;745;48.586;10.032;2022-11-20T00:24:13;4.90;;;4.40;;
1507;SDS011;745;48.586;10.032;2022-11-20T00:28:48;4.97;;;4.57;;
1507;SDS011;745;48.586;10.032;2022-11-20T00:33:23;4.90;;;4.03;;
1507;SDS011;745;48.586;10.032;2022-11-20T00:37:53;5.70;;;5.03;;
1507;SDS011;745;48.586;10.032;2022-11-20T00:42:24;6.07;;;4.20;;
1507;SDS011;745;48.586;10.032;2022-11-20T00:46:54;6.00;;;4.60;;
1507;SDS011;745;48.586;10.032;2022-11-20T00:51:26;6.87;;;4.47;;
1507;SDS011;745;48.586;10.032;2022-11-20T00:55:58;5.27;;;3.70;;
1507;SDS011;745;48.586;10.032;2022-11-20T01:00:30;6.30;;;4.67;;
1507;SDS011;745;48.586;10.032;2022-11-20T01:05:00;5.13;;;4.63;;
1507;SDS011;745;48.586;10.032;2022-11-20T01:09:31;5.30;;;4.80;;
1507;SDS011;745;48.586;10.032;2022-11-20T01:14:02;4.57;;;4.17;;
1507;SDS011;745;48.586;10.032;2022-11-20T01:18:34;4.57;;;4.17;;
1507;SDS011;745;48.586;10.032;2022-11-20T01:28:08;4.63;;;4.10;;
1507;SDS011;745;48.586;10.032;2022-11-20T01:32:39;5.33;;;4.67;;
1507;SDS011;745;48.586;10.032;2022-11-20T01:37:09;6.03;;;4.13;;
1507;SDS011;745;48.586;10.032;2022-11-20T01:41:40;4.50;;;3.80;;
1507;SDS011;745;48.586;10.032;2022-11-20T01:46:32;4.10;;;3.70;;
1507;SDS011;745;48.586;10.032;2022-11-20T01:51:06;4.30;;;3.87;;
1507;SDS011;745;48.586;10.032;2022-11-20T01:55:41;5.80;;;4.10;;
1507;SDS011;745;48.586;10.032;2022-11-20T02:00:15;5.60;;;4.50;;
1507;SDS011;745;48.586;10.032;2022-11-20T02:04:49;4.70;;;4.13;;
1507;SDS011;745;48.586;10.032;2022-11-20T02:09:20;4.47;;;4.07;;
1507;SDS011;745;48.586;10.032;2022-11-20T02:13:51;4.50;;;3.80;;
1507;SDS011;745;48.586;10.032;2022-11-20T02:18:22;4.63;;;3.83;;
1507;SDS011;745;48.586;10.032;2022-11-20T02:27:23;5.93;;;3.73;;
1507;SDS011;745;48.586;10.032;2022-11-20T02:31:54;4.50;;;4.10;;
1507;SDS011;745;48.586;10.032;2022-11-20T02:36:29;3.90;;;3.20;;
1507;SDS011;745;48.586;10.032;2022-11-20T02:41:02;3.37;;;3.07;;
1507;SDS011;745;48.586;10.032;2022-11-20T02:45:33;5.53;;;3.60;;
1507;SDS011;745;48.586;10.032;2022-11-20T02:50:05;4.23;;;3.83;;
1507;SDS011;745;48.586;10.032;2022-11-20T02:54:37;4.57;;;4.17;;
1507;SDS011;745;48.586;10.032;2022-11-20T02:59:10;4.53;;;3.80;;
1507;SDS011;745;48.586;10.032;2022-11-20T03:03:41;4.10;;;3.70;;
1507;SDS011;745;48.586;10.032;2022-11-20T03:08:13;4.10;;;3.70;;
1507;SDS011;745;48.586;10.032;2022-11-20T03:12:44;4.13;;;3.67;;
1507;SDS011;745;48.586;10.032;2022-11-20T03:17:15;5.20;;;4.70;;
1507;SDS011;745;48.586;10.032;2022-11-20T03:21:47;5.13;;;4.60;;
1507;SDS011;745;48.586;10.032;2022-11-20T03:26:20;7.47;;;5.07;;
1507;SDS011;745;48.586;10.032;2022-11-20T03:30:54;6.73;;;4.80;;
1507;SDS011;745;48.586;10.032;2022-11-20T03:35:25;4.53;;;4.13;;
1507;SDS011;745;48.586;10.032;2022-11-20T03:39:56;4.97;;;4.47;;
1507;SDS011;745;48.586;10.032;2022-11-20T03:44:27;5.80;;;5.20;;
1507;SDS011;745;48.586;10.032;2022-11-20T03:48:58;5.43;;;4.87;;
1507;SDS011;745;48.586;10.032;2022-11-20T03:53:28;5.13;;;4.63;;
1507;SDS011;745;48.586;10.032;2022-11-20T03:57:59;5.70;;;4.30;;
1507;SDS011;745;48.586;10.032;2022-11-20T04:02:30;4.50;;;4.07;;
1507;SDS011;745;48.586;10.032;2022-11-20T04:07:01;4.30;;;3.90;;
1507;SDS011;745;48.586;10.032;2022-11-20T04:11:33;5.17;;;4.30;;
1507;SDS011;745;48.586;10.032;2022-11-20T04:16:06;4.20;;;3.80;;
1507;SDS011;745;48.586;10.032;2022-11-20T04:20:37;4.30;;;3.90;;
1507;SDS011;745;48.586;10.032;2022-11-20T04:25:08;5.03;;;3.60;;
1507;SDS011;745;48.586;10.032;2022-11-20T04:29:40;4.60;;;4.10;;
1507;SDS011;745;48.586;10.032;2022-11-20T04:34:11;4.30;;;3.90;;
1507;SDS011;745;48.586;10.032;2022-11-20T04:38:43;4.50;;;4.00;;
1507;SDS011;745;48.586;10.032;2022-11-20T04:43:15;3.90;;;3.60;;
1507;SDS011;745;48.586;10.032;2022-11-20T04:47:46;4.90;;;4.37;;
1507;SDS011;745;48.586;10.032;2022-11-20T04:52:17;4.30;;;3.90;;
1507;SDS011;745;48.586;10.032;2022-11-20T04:56:48;5.30;;;4.20;;
1507;SDS011;745;48.586;10.032;2022-11-20T05:01:23;5.10;;;4.10;;
1507;SDS011;745;48.586;10.032;2022-11-20T05:05:54;4.63;;;4.10;;
1507;SDS011;745;48.586;10.032;2022-11-20T05:10:27;4.60;;;3.90;;
1507;SDS011;745;48.586;10.032;2022-11-20T05:14:58;6.80;;;4.00;;
1507;SDS011;745;48.586;10.032;2022-11-20T05:19:29;5.67;;;4.40;;
1507;SDS011;745;48.586;10.032;2022-11-20T05:23:59;5.97;;;5.10;;
1507;SDS011;745;48.586;10.032;2022-11-20T05:28:30;5.37;;;4.40;;
1507;SDS011;745;48.586;10.032;2022-11-20T05:33:01;5.30;;;4.40;;
1507;SDS011;745;48.586;10.032;2022-11-20T05:37:31;6.50;;;5.40;;
1507;SDS011;745;48.586;10.032;2022-11-20T05:42:03;8.00;;;5.80;;
1507;SDS011;745;48.586;10.032;2022-11-20T05:46:52;7.80;;;7.00;;
1507;SDS011;745;48.586;10.032;2022-11-20T05:51:23;8.33;;;5.43;;
1507;SDS011;745;48.586;10.032;2022-11-20T05:55:58;8.80;;;6.13;;
1507;SDS011;745;48.586;10.032;2022-11-20T06:00:30;6.00;;;5.13;;
1507;SDS011;745;48.586;10.032;2022-11-20T06:05:00;7.77;;;5.70;;
1507;SDS011;745;48.586;10.032;2022-11-20T06:09:31;6.83;;;5.60;;
1507;SDS011;745;48.586;10.032;2022-11-20T06:14:01;6.73;;;5.23;;
1507;SDS011;745;48.586;10.032;2022-11-20T06:18:32;6.30;;;5.40;;
1507;SDS011;745;48.586;10.032;2022-11-20T06:23:02;6.37;;;5.77;;
1507;SDS011;745;48.586;10.032;2022-11-20T06:27:33;7.07;;;5.60;;
1507;SDS011;745;48.586;10.032;2022-11-20T06:32:04;5.77;;;5.20;;
1507;SDS011;745;48.586;10.032;2022-11-20T06:36:34;6.63;;;5.50;;
1507;SDS011;745;48.586;10.032;2022-11-20T06:41:05;5.90;;;5.23;;
1507;SDS011;745;48.586;10.032;2022-11-20T06:45:37;6.50;;;5.37;;
1507;SDS011;745;48.586;10.032;2022-11-20T06:50:07;6.33;;;5.23;;
1507;SDS011;745;48.586;10.032;2022-11-20T06:54:38;5.40;;;4.90;;
1507;SDS011;745;48.586;10.032;2022-11-20T06:59:08;7.43;;;6.00;;
1507;SDS011;745;48.586;10.032;2022-11-20T07:03:39;5.97;;;5.37;;
1507;SDS011;745;48.586;10.032;2022-11-20T07:08:11;6.53;;;5.10;;
1507;SDS011;745;48.586;10.032;2022-11-20T07:12:41;6.70;;;6.00;;
1507;SDS011;745;48.586;10.032;2022-11-20T07:17:12;6.00;;;5.30;;
1507;SDS011;745;48.586;10.032;2022-11-20T07:21:43;9.90;;;7.30;;
1507;SDS011;745;48.586;10.032;2022-11-20T07:26:13;6.17;;;5.17;;
1507;SDS011;745;48.586;10.032;2022-11-20T07:30:49;4.80;;;4.40;;
1507;SDS011;745;48.586;10.032;2022-11-20T07:35:20;4.83;;;4.40;;
1507;SDS011;745;48.586;10.032;2022-11-20T07:39:51;9.23;;;5.10;;
1507;SDS011;745;48.586;10.032;2022-11-20T07:44:22;5.53;;;4.60;;
1507;SDS011;745;48.586;10.032;2022-11-20T07:48:52;4.93;;;4.40;;
1507;SDS011;745;48.586;10.032;2022-11-20T07:53:23;4.70;;;4.20;;
1507;SDS011;745;48.586;10.032;2022-11-20T07:57:55;4.47;;;4.07;;
1507;SDS011;745;48.586;10.032;2022-11-20T08:02:26;6.40;;;5.33;;
1507;SDS011;745;48.586;10.032;2022-11-20T08:06:57;7.73;;;6.63;;
1507;SDS011;745;48.586;10.032;2022-11-20T08:11:27;11.27;;;8.30;;
1507;SDS011;745;48.586;10.032;2022-11-20T08:16:16;6.63;;;6.03;;
1507;SDS011;745;48.586;10.032;2022-11-20T08:20:47;5.67;;;5.17;;
1507;SDS011;745;48.586;10.032;2022-11-20T08:25:17;5.47;;;4.97;;
1507;SDS011;745;48.586;10.032;2022-11-20T08:29:48;4.40;;;4.00;;
1507;SDS011;745;48.586;10.032;2022-11-20T08:34:19;5.73;;;5.13;;
1507;SDS011;745;48.586;10.032;2022-11-20T08:38:53;5.07;;;4.60;;
1507;SDS011;745;48.586;10.032;2022-11-20T08:43:25;4.83;;;4.33;;
1507;SDS011;745;48.586;10.032;2022-11-20T08:47:59;5.43;;;4.80;;
1507;SDS011;745;48.586;10.032;2022-11-20T08:52:31;5.10;;;4.27;;
1507;SDS011;745;48.586;10.032;2022-11-20T08:57:01;6.80;;;5.00;;
1507;SDS011;745;48.586;10.032;2022-11-20T09:01:32;4.50;;;4.10;;
1507;SDS011;745;48.586;10.032;2022-11-20T09:06:04;4.40;;;3.97;;
1507;SDS011;745;48.586;10.032;2022-11-20T09:10:36;4.57;;;4.07;;
1507;SDS011;745;48.586;10.032;2022-11-20T09:15:09;5.03;;;4.63;;
1507;SDS011;745;48.586;10.032;2022-11-20T09:19:41;5.07;;;3.80;;
1507;SDS011;745;48.586;10.032;2022-11-20T09:24:12;4.03;;;3.63;;
1507;SDS011;745;48.586;10.032;2022-11-20T09:28:43;4.07;;;3.67;;
1507;SDS011;745;48.586;10.032;2022-11-20T09:33:14;5.03;;;4.57;;
1507;SDS011;745;48.586;10.032;2022-11-20T09:37:44;6.37;;;5.10;;
1507;SDS011;745;48.586;10.032;2022-11-20T09:42:22;5.60;;;4.73;;
1507;SDS011;745;48.586;10.032;2022-11-20T09:51:46;6.07;;;5.20;;
1507;SDS011;745;48.586;10.032;2022-11-20T09:56:23;6.30;;;5.30;;
1507;SDS011;745;48.586;10.032;2022-11-20T10:00:55;4.20;;;3.90;;
1507;SDS011;745;48.586;10.032;2022-11-20T10:05:33;3.90;;;3.50;;
1507;SDS011;745;48.586;10.032;2022-11-20T10:10:15;3.57;;;3.27;;
1507;SDS011;745;48.586;10.032;2022-11-20T10:14:57;3.57;;;3.27;;
1507;SDS011;745;48.586;10.032;2022-11-20T10:25:14;5.00;;;4.50;;
1507;SDS011;745;48.586;10.032;2022-11-20T10:30:11;4.50;;;4.10;;
1507;SDS011;745;48.586;10.032;2022-11-20T10:35:27;3.67;;;3.37;;
1507;SDS011;745;48.586;10.032;2022-11-20T10:44:35;3.43;;;3.13;;
1507;SDS011;745;48.586;10.032;2022-11-20T10:49:25;8.00;;;5.50;;
1507;SDS011;745;48.586;10.032;2022-11-20T10:53:57;3.97;;;3.67;;
1507;SDS011;745;48.586;10.032;2022-11-20T11:03:30;10.33;;;7.10;;
1507;SDS011;745;48.586;10.032;2022-11-20T11:08:01;7.87;;;5.70;;
1507;SDS011;745;48.586;10.032;2022-11-20T11:12:33;5.17;;;4.40;;
1507;SDS011;745;48.586;10.032;2022-11-20T11:17:04;4.13;;;3.73;;
1507;SDS011;745;48.586;10.032;2022-11-20T11:21:34;4.20;;;3.80;;
1507;SDS011;745;48.586;10.032;2022-11-20T11:26:17;3.87;;;3.57;;
1507;SDS011;745;48.586;10.032;2022-11-20T11:30:49;3.67;;;3.23;;
1507;SDS011;745;48.586;10.032;2022-11-20T11:35:24;4.30;;;3.50;;
1507;SDS011;745;48.586;10.032;2022-11-20T11:39:56;3.23;;;2.93;;
1507;SDS011;745;48.586;10.032;2022-11-20T11:44:33;2.90;;;2.70;;
1507;SDS011;745;48.586;10.032;2022-11-20T11:49:24;4.40;;;3.50;;
1507;SDS011;745;48.586;10.032;2022-11-20T11:53:55;2.70;;;2.23;;
1507;SDS011;745;48.586;10.032;2022-11-20T12:03:31;2.03;;;1.93;;
1507;SDS011;745;48.586;10.032;2022-11-20T12:08:17;2.30;;;2.10;;
1507;SDS011;745;48.586;10.032;2022-11-20T12:12:58;2.30;;;2.10;;
1507;SDS011;745;48.586;10.032;2022-11-20T12:17:35;1.97;;;1.87;;
1507;SDS011;745;48.586;10.032;2022-11-20T12:41:43;2.47;;;2.27;;
1507;SDS011;745;48.586;10.032;2022-11-20T12:46:43;2.87;;;2.60;;
1507;SDS011;745;48.586;10.032;2022-11-20T12:56:31;4.50;;;2.10;;
1507;SDS011;745;48.586;10.032;2022-11-20T13:06:16;3.57;;;3.10;;
1507;SDS011;745;48.586;10.032;2022-11-20T13:20:30;5.20;;;2.63;;
1507;SDS011;745;48.586;10.032;2022-11-20T13:25:02;3.17;;;2.40;;
1507;SDS011;745;48.586;10.032;2022-11-20T13:29:35;5.20;;;2.77;;
1507;SDS011;745;48.586;10.032;2022-11-20T13:34:10;2.67;;;2.47;;
1507;SDS011;745;48.586;10.032;2022-11-20T13:38:46;3.13;;;2.43;;
1507;SDS011;745;48.586;10.032;2022-11-20T13:43:21;2.43;;;2.23;;
1507;SDS011;745;48.586;10.032;2022-11-20T13:48:22;2.80;;;1.70;;
1507;SDS011;745;48.586;10.032;2022-11-20T14:02:18;2.40;;;1.90;;
1507;SDS011;745;48.586;10.032;2022-11-20T14:06:50;2.60;;;2.40;;
1507;SDS011;745;48.586;10.032;2022-11-20T14:11:27;2.40;;;2.03;;
1507;SDS011;745;48.586;10.032;2022-11-20T14:15:59;2.20;;;2.00;;
1507;SDS011;745;48.586;10.032;2022-11-20T14:20:29;1.73;;;1.63;;
1507;SDS011;745;48.586;10.032;2022-11-20T14:29:36;2.00;;;1.60;;
1507;SDS011;745;48.586;10.032;2022-11-20T14:34:18;2.03;;;1.80;;
1507;SDS011;745;48.586;10.032;2022-11-20T14:38:51;1.60;;;1.50;;
1507;SDS011;745;48.586;10.032;2022-11-20T14:43:24;1.80;;;1.53;;
1507;SDS011;745;48.586;10.032;2022-11-20T14:47:57;2.13;;;1.80;;
1507;SDS011;745;48.586;10.032;2022-11-20T14:52:28;2.60;;;2.40;;
1507;SDS011;745;48.586;10.032;2022-11-20T14:56:59;2.37;;;2.00;;
1507;SDS011;745;48.586;10.032;2022-11-20T15:01:32;3.30;;;2.30;;
1507;SDS011;745;48.586;10.032;2022-11-20T15:06:04;2.60;;;2.40;;
1507;SDS011;745;48.586;10.032;2022-11-20T15:10:36;2.50;;;2.30;;
1507;SDS011;745;48.586;10.032;2022-11-20T15:15:10;2.50;;;2.30;;
1507;SDS011;745;48.586;10.032;2022-11-20T15:19:41;4.27;;;3.47;;
1507;SDS011;745;48.586;10.032;2022-11-20T15:24:12;4.43;;;3.90;;
1507;SDS011;745;48.586;10.032;2022-11-20T15:28:43;9.20;;;5.77;;
1507;SDS011;745;48.586;10.032;2022-11-20T15:33:15;13.87;;;8.70;;
1507;SDS011;745;48.586;10.032;2022-11-20T15:37:46;10.13;;;7.27;;
1507;SDS011;745;48.586;10.032;2022-11-20T15:42:17;6.63;;;4.90;;
1507;SDS011;745;48.586;10.032;2022-11-20T15:46:47;5.80;;;4.00;;
1507;SDS011;745;48.586;10.032;2022-11-20T15:51:22;5.13;;;4.63;;
1507;SDS011;745;48.586;10.032;2022-11-20T15:55:57;6.73;;;5.50;;
1507;SDS011;745;48.586;10.032;2022-11-20T16:00:27;5.90;;;5.10;;
1507;SDS011;745;48.586;10.032;2022-11-20T16:04:58;6.70;;;5.23;;
1507;SDS011;745;48.586;10.032;2022-11-20T16:09:29;9.40;;;6.63;;
1507;SDS011;745;48.586;10.032;2022-11-20T16:14:00;7.40;;;6.10;;
1507;SDS011;745;48.586;10.032;2022-11-20T16:18:49;8.27;;;6.50;;
1507;SDS011;745;48.586;10.032;2022-11-20T16:23:20;6.83;;;6.13;;
1507;SDS011;745;48.586;10.032;2022-11-20T16:27:52;6.60;;;5.50;;
1507;SDS011;745;48.586;10.032;2022-11-20T16:32:22;7.10;;;6.40;;
1507;SDS011;745;48.586;10.032;2022-11-20T16:36:55;6.63;;;5.93;;
1507;SDS011;745;48.586;10.032;2022-11-20T16:41:26;8.93;;;8.00;;
1507;SDS011;745;48.586;10.032;2022-11-20T16:45:58;9.80;;;7.67;;
1507;SDS011;745;48.586;10.032;2022-11-20T16:50:33;7.43;;;6.63;;
1507;SDS011;745;48.586;10.032;2022-11-20T16:55:04;6.63;;;6.03;;
1507;SDS011;745;48.586;10.032;2022-11-20T16:59:35;6.00;;;5.40;;
1507;SDS011;745;48.586;10.032;2022-11-20T17:04:07;5.80;;;5.20;;
1507;SDS011;745;48.586;10.032;2022-11-20T17:08:38;4.50;;;4.10;;
1507;SDS011;745;48.586;10.032;2022-11-20T17:13:09;4.60;;;4.20;;
1507;SDS011;745;48.586;10.032;2022-11-20T17:17:43;3.50;;;3.20;;
1507;SDS011;745;48.586;10.032;2022-11-20T17:22:14;4.40;;;4.00;;
1507;SDS011;745;48.586;10.032;2022-11-20T17:26:44;4.87;;;4.47;;
1507;SDS011;745;48.586;10.032;2022-11-20T17:31:16;5.87;;;5.30;;
1507;SDS011;745;48.586;10.032;2022-11-20T17:35:46;5.70;;;4.57;;
1507;SDS011;745;48.586;10.032;2022-11-20T17:40:17;4.60;;;4.20;;
1507;SDS011;745;48.586;10.032;2022-11-20T17:44:48;3.80;;;3.40;;
1507;SDS011;745;48.586;10.032;2022-11-20T17:49:19;3.83;;;3.30;;
1507;SDS011;745;48.586;10.032;2022-11-20T17:53:50;3.97;;;3.67;;
1507;SDS011;745;48.586;10.032;2022-11-20T17:58:22;5.20;;;4.70;;
1507;SDS011;745;48.586;10.032;2022-11-20T18:02:54;6.70;;;6.00;;
1507;SDS011;745;48.586;10.032;2022-11-20T18:07:24;8.03;;;5.80;;
1507;SDS011;745;48.586;10.032;2022-11-20T18:11:55;7.13;;;6.33;;
1507;SDS011;745;48.586;10.032;2022-11-20T18:16:26;7.50;;;5.97;;
1507;SDS011;745;48.586;10.032;2022-11-20T18:20:58;5.40;;;4.87;;
1507;SDS011;745;48.586;10.032;2022-11-20T18:25:30;5.57;;;4.97;;
1507;SDS011;745;48.586;10.032;2022-11-20T18:30:01;5.90;;;5.30;;
1507;SDS011;745;48.586;10.032;2022-11-20T18:34:32;8.37;;;6.10;;
1507;SDS011;745;48.586;10.032;2022-11-20T18:39:02;8.33;;;7.50;;
1507;SDS011;745;48.586;10.032;2022-11-20T18:43:33;11.13;;;7.33;;
1507;SDS011;745;48.586;10.032;2022-11-20T18:48:24;8.27;;;7.20;;
1507;SDS011;745;48.586;10.032;2022-11-20T18:52:54;8.80;;;7.60;;
1507;SDS011;745;48.586;10.032;2022-11-20T18:57:26;7.93;;;6.73;;
1507;SDS011;745;48.586;10.032;2022-11-20T19:01:57;8.33;;;6.80;;
1507;SDS011;745;48.586;10.032;2022-11-20T19:06:28;7.23;;;6.53;;
1507;SDS011;745;48.586;10.032;2022-11-20T19:11:08;10.20;;;8.00;;
1507;SDS011;745;48.586;10.032;2022-11-20T19:15:40;9.60;;;7.80;;
1507;SDS011;745;48.586;10.032;2022-11-20T19:20:10;9.00;;;7.00;;
1507;SDS011;745;48.586;10.032;2022-11-20T19:24:41;8.67;;;6.73;;
1507;SDS011;745;48.586;10.032;2022-11-20T19:29:13;5.67;;;5.13;;
1507;SDS011;745;48.586;10.032;2022-11-20T19:33:45;5.80;;;4.60;;
1507;SDS011;745;48.586;10.032;2022-11-20T19:38:16;5.17;;;4.30;;
1507;SDS011;745;48.586;10.032;2022-11-20T19:42:46;5.17;;;4.03;;
1507;SDS011;745;48.586;10.032;2022-11-20T19:47:17;4.90;;;2.40;;
1507;SDS011;745;48.586;10.032;2022-11-20T19:51:48;2.63;;;2.43;;
1507;SDS011;745;48.586;10.032;2022-11-20T19:56:20;2.23;;;2.13;;
1507;SDS011;745;48.586;10.032;2022-11-20T20:00:52;2.10;;;2.00;;
1507;SDS011;745;48.586;10.032;2022-11-20T20:05:22;3.00;;;2.70;;
1507;SDS011;745;48.586;10.032;2022-11-20T20:09:53;2.83;;;2.63;;
1507;SDS011;745;48.586;10.032;2022-11-20T20:14:23;3.07;;;2.67;;
1507;SDS011;745;48.586;10.032;2022-11-20T20:18:56;3.10;;;2.43;;
1507;SDS011;745;48.586;10.032;2022-11-20T20:23:31;2.83;;;2.60;;
1507;SDS011;745;48.586;10.032;2022-11-20T20:28:03;2.40;;;2.20;;
1507;SDS011;745;48.586;10.032;2022-11-20T20:32:34;2.67;;;2.47;;
1507;SDS011;745;48.586;10.032;2022-11-20T20:37:05;4.00;;;2.77;;
1507;SDS011;745;48.586;10.032;2022-11-20T20:41:35;4.90;;;2.87;;
1507;SDS011;745;48.586;10.032;2022-11-20T20:46:06;3.37;;;2.83;;
1507;SDS011;745;48.586;10.032;2022-11-20T20:50:36;3.40;;;2.80;;
1507;SDS011;745;48.586;10.032;2022-11-20T20:55:07;2.87;;;2.60;;
1507;SDS011;745;48.586;10.032;2022-11-20T20:59:38;3.17;;;2.87;;
1507;SDS011;745;48.586;10.032;2022-11-20T21:04:09;2.97;;;2.47;;
1507;SDS011;745;48.586;10.032;2022-11-20T21:08:40;2.53;;;2.33;;
1507;SDS011;745;48.586;10.032;2022-11-20T21:13:10;2.40;;;2.20;;
1507;SDS011;745;48.586;10.032;2022-11-20T21:17:41;3.30;;;2.40;;
1507;SDS011;745;48.586;10.032;2022-11-20T21:22:13;2.80;;;2.53;;
1507;SDS011;745;48.586;10.032;2022-11-20T21:26:43;2.60;;;2.40;;
1507;SDS011;745;48.586;10.032;2022-11-20T21:36:31;2.33;;;2.13;;
1507;SDS011;745;48.586;10.032;2022-11-20T21:41:02;2.43;;;2.23;;
1507;SDS011;745;48.586;10.032;2022-11-20T21:45:33;2.10;;;2.00;;
1507;SDS011;745;48.586;10.032;2022-11-20T21:50:04;2.53;;;2.33;;
1507;SDS011;745;48.586;10.032;2022-11-20T21:54:35;2.20;;;2.10;;
1507;SDS011;745;48.586;10.032;2022-11-20T21:59:05;2.47;;;2.27;;
1507;SDS011;745;48.586;10.032;2022-11-20T22:03:39;2.37;;;2.17;;
1507;SDS011;745;48.586;10.032;2022-11-20T22:08:10;2.67;;;2.00;;
1507;SDS011;745;48.586;10.032;2022-11-20T22:12:41;2.00;;;1.90;;
1507;SDS011;745;48.586;10.032;2022-11-20T22:17:12;4.30;;;2.00;;
1507;SDS011;745;48.586;10.032;2022-11-20T22:21:43;2.53;;;2.33;;
1507;SDS011;745;48.586;10.032;2022-11-20T22:26:15;2.37;;;2.17;;
1507;SDS011;745;48.586;10.032;2022-11-20T22:30:46;1.83;;;1.73;;
1507;SDS011;745;48.586;10.032;2022-11-20T22:35:17;1.80;;;1.70;;
1507;SDS011;745;48.586;10.032;2022-11-20T22:39:48;1.70;;;1.60;;
1507;SDS011;745;48.586;10.032;2022-11-20T22:44:19;1.70;;;1.60;;
1507;SDS011;745;48.586;10.032;2022-11-20T22:48:54;1.60;;;1.50;;
1507;SDS011;745;48.586;10.032;2022-11-20T22:53:25;1.70;;;1.60;;
1507;SDS011;745;48.586;10.032;2022-11-20T22:57:56;1.73;;;1.57;;
1507;SDS011;745;48.586;10.032;2022-11-20T23:02:26;1.40;;;1.30;;
1507;SDS011;745;48.586;10.032;2022-11-20T23:06:57;1.70;;;1.60;;
1507;SDS011;745;48.586;10.032;2022-11-20T23:11:29;1.40;;;1.30;;
1507;SDS011;745;48.586;10.032;2022-11-20T23:16:10;2.30;;;1.40;;
1507;SDS011;745;48.586;10.032;2022-11-20T23:20:44;1.50;;;1.40;;
1507;SDS011;745;48.586;10.032;2022-11-20T23:25:15;1.67;;;1.50;;
1507;SDS011;745;48.586;10.032;2022-11-20T23:29:45;1.50;;;1.40;;
1507;SDS011;745;48.586;10.032;2022-11-20T23:34:16;1.77;;;1.50;;
1507;SDS011;745;48.586;10.032;2022-11-20T23:38:47;1.30;;;1.20;;
1507;SDS011;745;48.586;10.032;2022-11-20T23:43:18;1.73;;;1.20;;
1507;SDS011;745;48.586;10.032;2022-11-20T23:47:49;1.47;;;1.23;;
1507;SDS011;745;48.586;10.032;2022-11-20T23:52:20;1.37;;;1.27;;
1507;SDS011;745;48.586;10.032;2022-11-20T23:56:51;1.23;;;1.13;;
